createdAt,value
2017-12-14T00:00:05.689Z,0
2017-12-14T00:01:05.693Z,0
2017-12-14T00:02:05.386Z,0
2017-12-14T00:03:05.384Z,0
2017-12-14T00:04:05.124Z,0
2017-12-14T00:05:05.344Z,0
2017-12-14T00:06:05.604Z,0
2017-12-14T00:07:05.588Z,0
2017-12-14T00:08:05.323Z,0
2017-12-14T00:09:05.303Z,0
2017-12-14T00:10:05.528Z,0
2017-12-14T00:11:05.533Z,0
2017-12-14T00:12:05.548Z,0
2017-12-14T00:13:05.493Z,0
2017-12-14T00:14:04.985Z,0
2017-12-14T00:15:05.474Z,0
2017-12-14T00:16:05.469Z,0
2017-12-14T00:17:05.431Z,0
2017-12-14T00:18:05.426Z,0
2017-12-14T00:19:05.423Z,0
2017-12-14T00:20:05.146Z,0
2017-12-14T00:21:05.381Z,0
2017-12-14T00:22:05.370Z,0
2017-12-14T00:23:05.366Z,0
2017-12-14T00:24:05.350Z,0
2017-12-14T00:25:05.347Z,0
2017-12-14T00:26:05.339Z,0
2017-12-14T00:27:05.292Z,0
2017-12-14T00:28:05.288Z,0
2017-12-14T00:29:04.806Z,0
2017-12-14T00:30:05.001Z,0
2017-12-14T00:31:05.248Z,0
2017-12-14T00:32:05.257Z,0
2017-12-14T00:33:05.226Z,0
2017-12-14T00:34:05.196Z,0
2017-12-14T00:35:04.692Z,0
2017-12-14T00:36:05.185Z,0
2017-12-14T00:37:05.183Z,0
2017-12-14T00:38:04.893Z,0
2017-12-14T00:39:05.133Z,0
2017-12-14T00:40:05.106Z,0
2017-12-14T00:41:05.113Z,0
2017-12-14T00:42:04.821Z,0
2017-12-14T00:43:05.139Z,0
2017-12-14T00:44:05.513Z,0
2017-12-14T00:45:05.059Z,0
2017-12-14T00:46:05.037Z,0
2017-12-14T00:47:05.029Z,0
2017-12-14T00:48:05.022Z,0
2017-12-14T00:49:05.037Z,0
2017-12-14T00:50:04.989Z,0
2017-12-14T00:51:04.975Z,0
2017-12-14T00:52:04.963Z,0
2017-12-14T00:53:04.950Z,0
2017-12-14T00:54:04.929Z,0
2017-12-14T00:55:04.935Z,0
2017-12-14T00:56:04.909Z,0
2017-12-14T00:57:04.898Z,0
2017-12-14T00:58:04.861Z,0
2017-12-14T00:59:04.866Z,0
2017-12-14T01:00:04.328Z,0
2017-12-14T01:01:04.834Z,0
2017-12-14T01:02:04.822Z,0
2017-12-14T01:03:04.799Z,0
2017-12-14T01:04:04.798Z,0
2017-12-14T01:05:04.527Z,0
2017-12-14T01:06:04.770Z,0
2017-12-14T01:07:04.488Z,0
2017-12-14T01:08:04.753Z,0
2017-12-14T01:09:04.708Z,0
2017-12-14T01:10:04.714Z,0
2017-12-14T01:11:04.445Z,0
2017-12-14T01:12:04.435Z,0
2017-12-14T01:13:04.668Z,0
2017-12-14T01:14:04.667Z,0
2017-12-14T01:15:04.657Z,0
2017-12-14T01:16:04.632Z,0
2017-12-14T01:17:04.596Z,0
2017-12-14T01:18:04.602Z,0
2017-12-14T01:19:04.352Z,0
2017-12-14T01:20:04.585Z,0
2017-12-14T01:21:04.993Z,0
2017-12-14T01:22:04.549Z,0
2017-12-14T01:23:04.542Z,0
2017-12-14T01:24:04.291Z,0
2017-12-14T01:25:04.519Z,0
2017-12-14T01:26:04.506Z,0
2017-12-14T01:27:04.520Z,0
2017-12-14T01:28:04.474Z,0
2017-12-14T01:29:04.463Z,0
2017-12-14T01:30:04.172Z,0
2017-12-14T01:31:04.432Z,0
2017-12-14T01:32:04.429Z,0
2017-12-14T01:33:04.141Z,0
2017-12-14T01:34:04.379Z,0
2017-12-14T01:35:04.355Z,0
2017-12-14T01:36:04.106Z,0
2017-12-14T01:37:04.090Z,0
2017-12-14T01:38:04.403Z,0
2017-12-14T01:39:04.327Z,0
2017-12-14T01:40:04.316Z,0
2017-12-14T01:41:04.283Z,0
2017-12-14T01:42:04.035Z,0
2017-12-14T01:43:03.994Z,0
2017-12-14T01:44:04.270Z,0
2017-12-14T01:45:04.235Z,0
2017-12-14T01:46:04.233Z,0
2017-12-14T01:47:04.221Z,0
2017-12-14T01:48:04.206Z,0
2017-12-14T01:49:04.182Z,0
2017-12-14T01:50:04.160Z,0
2017-12-14T01:51:04.157Z,0
2017-12-14T01:52:03.883Z,0
2017-12-14T01:53:04.140Z,0
2017-12-14T01:54:03.876Z,0
2017-12-14T01:55:04.110Z,0
2017-12-14T01:56:04.099Z,0
2017-12-14T01:57:04.139Z,0
2017-12-14T01:58:04.064Z,0
2017-12-14T01:59:03.802Z,0
2017-12-14T02:00:04.041Z,0
2017-12-14T02:01:04.049Z,0
2017-12-14T02:02:04.023Z,0
2017-12-14T02:03:03.744Z,0
2017-12-14T02:04:03.989Z,0
2017-12-14T02:05:03.963Z,0
2017-12-14T02:06:03.964Z,0
2017-12-14T02:07:03.684Z,0
2017-12-14T02:08:03.943Z,0
2017-12-14T02:09:03.935Z,0
2017-12-14T02:10:03.897Z,0
2017-12-14T02:11:03.885Z,0
2017-12-14T02:12:03.870Z,0
2017-12-14T02:13:03.603Z,0
2017-12-14T02:14:03.846Z,0
2017-12-14T02:15:03.846Z,0
2017-12-14T02:16:03.827Z,0
2017-12-14T02:17:03.803Z,0
2017-12-14T02:18:03.782Z,0
2017-12-14T02:19:03.780Z,0
2017-12-14T02:20:03.766Z,0
2017-12-14T02:21:03.741Z,0
2017-12-14T02:22:03.737Z,0
2017-12-14T02:23:03.731Z,0
2017-12-14T02:24:03.717Z,0
2017-12-14T02:25:03.700Z,0
2017-12-14T02:26:03.427Z,0
2017-12-14T02:27:03.684Z,0
2017-12-14T02:28:03.658Z,0
2017-12-14T02:29:03.617Z,0
2017-12-14T02:30:03.382Z,0
2017-12-14T02:31:03.605Z,0
2017-12-14T02:32:03.621Z,0
2017-12-14T02:33:03.071Z,0
2017-12-14T02:34:03.563Z,0
2017-12-14T02:35:03.563Z,0
2017-12-14T02:36:03.555Z,0
2017-12-14T02:37:03.019Z,0
2017-12-14T02:38:03.522Z,0
2017-12-14T02:39:03.232Z,0
2017-12-14T02:40:03.494Z,0
2017-12-14T02:41:03.289Z,0
2017-12-14T02:42:03.476Z,0
2017-12-14T02:43:03.460Z,0
2017-12-14T02:44:03.444Z,0
2017-12-14T02:45:03.170Z,0
2017-12-14T02:46:03.414Z,0
2017-12-14T02:47:03.127Z,0
2017-12-14T02:48:03.452Z,0
2017-12-14T02:49:03.371Z,0
2017-12-14T02:50:03.336Z,0
2017-12-14T02:51:03.351Z,0
2017-12-14T02:52:03.338Z,0
2017-12-14T02:53:03.306Z,0
2017-12-14T02:54:03.287Z,0
2017-12-14T02:55:03.282Z,0
2017-12-14T02:56:03.000Z,0
2017-12-14T02:57:03.249Z,0
2017-12-14T02:58:02.964Z,0
2017-12-14T02:59:03.229Z,0
2017-12-14T03:00:03.228Z,0
2017-12-14T03:01:02.937Z,0
2017-12-14T03:02:03.164Z,0
2017-12-14T03:03:03.167Z,0
2017-12-14T03:04:03.156Z,0
2017-12-14T03:05:03.160Z,0
2017-12-14T03:06:03.106Z,0
2017-12-14T03:07:03.093Z,0
2017-12-14T03:08:02.828Z,0
2017-12-14T03:09:03.079Z,0
2017-12-14T03:10:02.820Z,0
2017-12-14T03:11:03.041Z,0
2017-12-14T03:12:03.036Z,0
2017-12-14T03:13:03.028Z,0
2017-12-14T03:14:02.752Z,0
2017-12-14T03:15:02.988Z,0
2017-12-14T03:16:02.969Z,0
2017-12-14T03:17:02.967Z,0
2017-12-14T03:18:02.698Z,0
2017-12-14T03:19:02.682Z,0
2017-12-14T03:20:02.924Z,0
2017-12-14T03:21:02.653Z,0
2017-12-14T03:22:02.891Z,0
2017-12-14T03:23:02.892Z,0
2017-12-14T03:24:02.876Z,0
2017-12-14T03:25:02.656Z,0
2017-12-14T03:26:02.835Z,0
2017-12-14T03:27:02.831Z,0
2017-12-14T03:28:02.568Z,0
2017-12-14T03:29:02.805Z,0
2017-12-14T03:30:02.784Z,0
2017-12-14T03:31:02.847Z,0
2017-12-14T03:32:02.752Z,0
2017-12-14T03:33:02.804Z,0
2017-12-14T03:34:02.733Z,0
2017-12-14T03:35:02.717Z,0
2017-12-14T03:36:02.721Z,0
2017-12-14T03:37:02.689Z,0
2017-12-14T03:38:02.416Z,0
2017-12-14T03:39:02.658Z,0
2017-12-14T03:40:02.666Z,0
2017-12-14T03:41:02.657Z,0
2017-12-14T03:42:02.374Z,0
2017-12-14T03:43:02.613Z,0
2017-12-14T03:44:02.593Z,0
2017-12-14T03:45:02.327Z,0
2017-12-14T03:46:02.586Z,0
2017-12-14T03:47:01.807Z,0
2017-12-14T03:48:02.535Z,0
2017-12-14T03:49:02.546Z,0
2017-12-14T03:50:02.524Z,0
2017-12-14T03:51:02.512Z,0
2017-12-14T03:52:02.488Z,0
2017-12-14T03:53:02.496Z,0
2017-12-14T03:54:02.456Z,0
2017-12-14T03:55:02.436Z,0
2017-12-14T03:56:02.214Z,0
2017-12-14T03:57:02.178Z,0
2017-12-14T03:58:02.178Z,0
2017-12-14T03:59:02.394Z,0
2017-12-14T04:00:02.416Z,0
2017-12-14T04:01:02.384Z,0
2017-12-14T04:02:02.365Z,0
2017-12-14T04:03:02.098Z,0
2017-12-14T04:04:02.074Z,0
2017-12-14T04:05:02.333Z,0
2017-12-14T04:06:02.327Z,0
2017-12-14T04:07:02.293Z,0
2017-12-14T04:08:02.024Z,0
2017-12-14T04:09:02.267Z,0
2017-12-14T04:10:02.258Z,0
2017-12-14T04:11:02.264Z,0
2017-12-14T04:12:02.226Z,0
2017-12-14T04:13:02.213Z,0
2017-12-14T04:14:02.217Z,0
2017-12-14T04:15:02.177Z,0
2017-12-14T04:16:01.924Z,0
2017-12-14T04:17:02.177Z,0
2017-12-14T04:18:02.154Z,0
2017-12-14T04:19:02.134Z,0
2017-12-14T04:20:02.136Z,0
2017-12-14T04:21:02.117Z,0
2017-12-14T04:22:01.837Z,0
2017-12-14T04:23:02.089Z,0
2017-12-14T04:24:02.078Z,0
2017-12-14T04:25:02.062Z,0
2017-12-14T04:26:02.045Z,0
2017-12-14T04:27:02.035Z,0
2017-12-14T04:28:02.031Z,0
2017-12-14T04:29:02.057Z,0
2017-12-14T04:30:02.004Z,0
2017-12-14T04:31:01.987Z,0
2017-12-14T04:32:01.981Z,0
2017-12-14T04:33:01.962Z,0
2017-12-14T04:34:01.958Z,0
2017-12-14T04:35:01.940Z,0
2017-12-14T04:36:01.913Z,0
2017-12-14T04:37:01.912Z,0
2017-12-14T04:38:01.907Z,0
2017-12-14T04:39:01.886Z,0
2017-12-14T04:40:01.874Z,0
2017-12-14T04:41:01.876Z,0
2017-12-14T04:42:01.338Z,0
2017-12-14T04:43:01.847Z,0
2017-12-14T04:44:01.817Z,0
2017-12-14T04:45:01.823Z,0
2017-12-14T04:46:01.804Z,0
2017-12-14T04:47:01.777Z,0
2017-12-14T04:48:01.523Z,0
2017-12-14T04:49:01.748Z,0
2017-12-14T04:50:01.481Z,0
2017-12-14T04:51:01.717Z,0
2017-12-14T04:52:01.455Z,0
2017-12-14T04:53:01.723Z,0
2017-12-14T04:54:01.430Z,0
2017-12-14T04:55:01.690Z,0
2017-12-14T04:56:01.674Z,0
2017-12-14T04:57:01.648Z,0
2017-12-14T04:58:01.394Z,0
2017-12-14T04:59:01.646Z,0
2017-12-14T05:00:01.624Z,0
2017-12-14T05:01:01.364Z,0
2017-12-14T05:02:01.605Z,0
2017-12-14T05:03:01.610Z,0
2017-12-14T05:04:01.567Z,0
2017-12-14T05:05:01.572Z,0
2017-12-14T05:06:01.541Z,0
2017-12-14T05:07:01.313Z,0
2017-12-14T05:08:01.522Z,0
2017-12-14T05:09:01.519Z,0
2017-12-14T05:10:01.499Z,0
2017-12-14T05:11:01.487Z,0
2017-12-14T05:12:01.209Z,0
2017-12-14T05:13:01.475Z,0
2017-12-14T05:14:01.465Z,0
2017-12-14T05:15:01.430Z,0
2017-12-14T05:16:01.436Z,0
2017-12-14T05:17:01.416Z,0
2017-12-14T05:18:01.382Z,0
2017-12-14T05:19:01.407Z,0
2017-12-14T05:20:01.121Z,0
2017-12-14T05:21:01.376Z,0
2017-12-14T05:22:01.078Z,0
2017-12-14T05:23:01.342Z,0
2017-12-14T05:24:01.324Z,0
2017-12-14T05:25:01.334Z,0
2017-12-14T05:26:01.350Z,0
2017-12-14T05:27:01.300Z,0
2017-12-14T05:28:13.981Z,0
2017-12-14T05:29:01.308Z,0
2017-12-14T05:30:01.264Z,0
2017-12-14T05:31:01.324Z,0
2017-12-14T05:32:01.212Z,0
2017-12-14T05:33:01.236Z,0
2017-12-14T05:34:01.238Z,0
2017-12-14T05:35:01.226Z,0
2017-12-14T05:36:01.211Z,0
2017-12-14T05:37:01.181Z,0
2017-12-14T05:38:00.928Z,0
2017-12-14T05:39:01.166Z,0
2017-12-14T05:40:01.159Z,0
2017-12-14T05:41:00.890Z,0
2017-12-14T05:42:01.124Z,0
2017-12-14T05:43:00.864Z,0
2017-12-14T05:44:00.855Z,0
2017-12-14T05:45:01.090Z,0
2017-12-14T05:46:00.819Z,0
2017-12-14T05:47:01.065Z,0
2017-12-14T05:48:01.060Z,0
2017-12-14T05:49:01.047Z,0
2017-12-14T05:50:01.031Z,0
2017-12-14T05:51:01.007Z,0
2017-12-14T05:52:01.006Z,0
2017-12-14T05:53:00.746Z,0
2017-12-14T05:54:00.987Z,0
2017-12-14T05:55:00.711Z,0
2017-12-14T05:56:00.690Z,0
2017-12-14T05:57:00.955Z,0
2017-12-14T05:58:00.921Z,0
2017-12-14T05:59:00.917Z,0
2017-12-14T06:00:00.916Z,0
2017-12-14T06:01:00.903Z,0
2017-12-14T06:02:00.605Z,0
2017-12-14T06:03:00.861Z,0
2017-12-14T06:04:00.856Z,0
2017-12-14T06:05:00.577Z,0
2017-12-14T06:06:00.568Z,0
2017-12-14T06:07:00.837Z,0
2017-12-14T06:08:00.810Z,0
2017-12-14T06:09:00.827Z,0
2017-12-14T06:10:00.775Z,0
2017-12-14T06:11:00.514Z,0
2017-12-14T06:12:00.748Z,0
2017-12-14T06:13:00.494Z,0
2017-12-14T06:14:00.738Z,0
2017-12-14T06:15:00.717Z,0
2017-12-14T06:16:00.712Z,0
2017-12-14T06:17:00.684Z,0
2017-12-14T06:18:00.421Z,0
2017-12-14T06:19:00.723Z,0
2017-12-14T06:20:00.426Z,0
2017-12-14T06:21:00.641Z,0
2017-12-14T06:22:00.624Z,0
2017-12-14T06:23:00.363Z,0
2017-12-14T06:24:00.664Z,0
2017-12-14T06:25:00.602Z,0
2017-12-14T06:26:00.630Z,0
2017-12-14T06:27:00.578Z,0
2017-12-14T06:28:00.574Z,0
2017-12-14T06:29:00.601Z,0
2017-12-14T06:30:00.619Z,0
2017-12-14T06:31:00.517Z,0
2017-12-14T06:32:00.523Z,0
2017-12-14T06:33:00.483Z,0
2017-12-14T06:34:00.487Z,0
2017-12-14T06:35:00.474Z,0
2017-12-14T06:36:00.459Z,0
2017-12-14T06:37:00.451Z,0
2017-12-14T06:38:00.438Z,0
2017-12-14T06:39:00.439Z,0
2017-12-14T06:40:00.437Z,0
2017-12-14T06:41:00.403Z,0
2017-12-14T06:42:00.384Z,0
2017-12-14T06:43:00.368Z,0
2017-12-14T06:44:00.108Z,0
2017-12-14T06:45:00.357Z,0
2017-12-14T06:46:00.122Z,0
2017-12-14T06:47:00.320Z,0
2017-12-14T06:48:00.303Z,0
2017-12-14T06:49:00.291Z,0
2017-12-14T06:50:00.273Z,0
2017-12-14T06:51:00.011Z,0
2017-12-14T06:51:59.994Z,0
2017-12-14T06:53:00.240Z,0
2017-12-14T06:54:00.240Z,0
2017-12-14T06:55:00.231Z,0
2017-12-14T06:55:59.959Z,0
2017-12-14T06:57:00.299Z,0
2017-12-14T06:57:59.933Z,0
2017-12-14T06:58:59.920Z,0
2017-12-14T07:00:00.156Z,0
2017-12-14T07:01:00.160Z,5
2017-12-14T07:02:00.167Z,5
2017-12-14T07:03:00.123Z,5
2017-12-14T07:04:00.109Z,5
2017-12-14T07:05:00.110Z,5
2017-12-14T07:05:59.831Z,5
2017-12-14T07:07:00.067Z,5
2017-12-14T07:08:00.091Z,5
2017-12-14T07:09:00.091Z,5
2017-12-14T07:10:00.076Z,5
2017-12-14T07:11:00.021Z,10
2017-12-14T07:12:00.031Z,10
2017-12-14T07:12:59.719Z,10
2017-12-14T07:14:00.511Z,10
2017-12-14T07:15:00.051Z,10
2017-12-14T07:15:59.948Z,10
2017-12-14T07:16:59.954Z,10
2017-12-14T07:17:59.940Z,10
2017-12-14T07:18:59.917Z,10
2017-12-14T07:19:59.923Z,10
2017-12-14T07:20:59.955Z,10
2017-12-14T07:21:59.906Z,10
2017-12-14T07:22:59.932Z,10
2017-12-14T07:23:59.990Z,15
2017-12-14T07:24:59.866Z,15
2017-12-14T07:25:59.885Z,15
2017-12-14T07:26:59.880Z,15
2017-12-14T07:27:59.808Z,15
2017-12-14T07:28:59.794Z,15
2017-12-14T07:29:59.770Z,20
2017-12-14T07:30:59.770Z,20
2017-12-14T07:31:59.778Z,20
2017-12-14T07:32:59.731Z,20
2017-12-14T07:33:59.753Z,20
2017-12-14T07:34:59.738Z,20
2017-12-14T07:35:59.750Z,20
2017-12-14T07:36:59.683Z,25
2017-12-14T07:37:59.444Z,25
2017-12-14T07:38:59.673Z,25
2017-12-14T07:39:59.475Z,25
2017-12-14T07:40:59.661Z,25
2017-12-14T07:41:59.618Z,25
2017-12-14T07:42:59.356Z,25
2017-12-14T07:43:59.442Z,25
2017-12-14T07:44:59.592Z,30
2017-12-14T07:45:59.336Z,30
2017-12-14T07:46:59.539Z,30
2017-12-14T07:47:59.550Z,30
2017-12-14T07:48:59.543Z,30
2017-12-14T07:49:59.524Z,30
2017-12-14T07:50:59.530Z,30
2017-12-14T07:51:59.759Z,30
2017-12-14T07:52:59.295Z,30
2017-12-14T07:53:59.482Z,30
2017-12-14T07:54:59.484Z,30
2017-12-14T07:55:59.207Z,30
2017-12-14T07:56:59.439Z,35
2017-12-14T07:57:59.417Z,35
2017-12-14T07:58:59.409Z,35
2017-12-14T07:59:59.406Z,35
2017-12-14T08:00:59.557Z,35
2017-12-14T08:01:59.371Z,35
2017-12-14T08:02:59.098Z,40
2017-12-14T08:03:59.370Z,40
2017-12-14T08:04:59.499Z,40
2017-12-14T08:05:59.084Z,40
2017-12-14T08:06:59.399Z,40
2017-12-14T08:07:59.058Z,40
2017-12-14T08:08:59.283Z,40
2017-12-14T08:09:59.270Z,40
2017-12-14T08:10:59.285Z,40
2017-12-14T08:11:59.259Z,40
2017-12-14T08:12:58.970Z,40
2017-12-14T08:13:58.957Z,40
2017-12-14T08:14:59.219Z,40
2017-12-14T08:15:59.197Z,45
2017-12-14T08:16:59.185Z,45
2017-12-14T08:17:58.917Z,45
2017-12-14T08:18:58.939Z,50
2017-12-14T08:19:58.897Z,50
2017-12-14T08:20:58.658Z,50
2017-12-14T08:21:59.107Z,50
2017-12-14T08:22:58.849Z,50
2017-12-14T08:23:58.851Z,50
2017-12-14T08:24:59.087Z,55
2017-12-14T08:25:59.096Z,55
2017-12-14T08:26:59.076Z,55
2017-12-14T08:27:59.050Z,60
2017-12-14T08:28:59.031Z,65
2017-12-14T08:29:58.873Z,70
2017-12-14T08:30:59.025Z,70
2017-12-14T08:31:59.006Z,75
2017-12-14T08:32:58.988Z,75
2017-12-14T08:33:58.990Z,75
2017-12-14T08:34:59.047Z,75
2017-12-14T08:35:58.971Z,80
2017-12-14T08:36:58.995Z,80
2017-12-14T08:37:58.676Z,80
2017-12-14T08:38:58.969Z,80
2017-12-14T08:39:58.664Z,80
2017-12-14T08:40:58.911Z,85
2017-12-14T08:41:58.414Z,80
2017-12-14T08:42:58.705Z,80
2017-12-14T08:43:58.880Z,80
2017-12-14T08:44:58.928Z,75
2017-12-14T08:45:58.623Z,80
2017-12-14T08:46:58.952Z,75
2017-12-14T08:47:58.982Z,70
2017-12-14T08:48:58.620Z,70
2017-12-14T08:49:58.436Z,70
2017-12-14T08:50:58.633Z,70
2017-12-14T08:51:58.909Z,70
2017-12-14T08:52:59.039Z,70
2017-12-14T08:53:58.521Z,65
2017-12-14T08:54:58.851Z,65
2017-12-14T08:55:58.618Z,65
2017-12-14T08:56:58.864Z,70
2017-12-14T08:57:58.856Z,70
2017-12-14T08:58:59.308Z,70
2017-12-14T08:59:58.745Z,70
2017-12-14T09:00:59.094Z,70
2017-12-14T09:01:58.568Z,70
2017-12-14T09:02:58.480Z,75
2017-12-14T09:03:58.712Z,70
2017-12-14T09:04:58.691Z,75
2017-12-14T09:05:58.577Z,75
2017-12-14T09:06:58.593Z,70
2017-12-14T09:07:58.924Z,70
2017-12-14T09:08:58.692Z,70
2017-12-14T09:09:58.668Z,70
2017-12-14T09:10:58.450Z,70
2017-12-14T09:11:58.572Z,70
2017-12-14T09:12:58.633Z,70
2017-12-14T09:13:58.700Z,70
2017-12-14T09:14:58.343Z,70
2017-12-14T09:15:58.852Z,70
2017-12-14T09:16:58.339Z,70
2017-12-14T09:17:58.649Z,75
2017-12-14T09:18:59.104Z,75
2017-12-14T09:19:58.696Z,80
2017-12-14T09:20:58.819Z,80
2017-12-14T09:21:58.289Z,85
2017-12-14T09:22:58.523Z,85
2017-12-14T09:23:58.525Z,90
2017-12-14T09:24:58.520Z,90
2017-12-14T09:25:58.808Z,90
2017-12-14T09:26:58.503Z,90
2017-12-14T09:27:58.500Z,90
2017-12-14T09:28:58.485Z,90
2017-12-14T09:29:58.701Z,90
2017-12-14T09:30:58.930Z,90
2017-12-14T09:31:58.593Z,85
2017-12-14T09:32:58.398Z,85
2017-12-14T09:33:58.403Z,85
2017-12-14T09:34:57.873Z,80
2017-12-14T09:35:58.469Z,80
2017-12-14T09:36:58.300Z,80
2017-12-14T09:37:58.426Z,80
2017-12-14T09:38:58.071Z,80
2017-12-14T09:39:58.048Z,80
2017-12-14T09:40:58.008Z,80
2017-12-14T09:41:58.001Z,80
2017-12-14T09:42:58.162Z,80
2017-12-14T09:43:58.148Z,80
2017-12-14T09:44:58.240Z,85
2017-12-14T09:45:57.928Z,90
2017-12-14T09:46:58.129Z,90
2017-12-14T09:47:58.133Z,95
2017-12-14T09:48:58.337Z,90
2017-12-14T09:49:58.082Z,95
2017-12-14T09:50:58.095Z,95
2017-12-14T09:51:57.787Z,95
2017-12-14T09:52:58.054Z,90
2017-12-14T09:53:57.986Z,90
2017-12-14T09:54:57.738Z,90
2017-12-14T09:55:58.001Z,95
2017-12-14T09:56:58.011Z,95
2017-12-14T09:57:58.092Z,100
2017-12-14T09:58:57.974Z,100
2017-12-14T09:59:57.995Z,100
2017-12-14T10:00:57.952Z,100
2017-12-14T10:01:57.670Z,100
2017-12-14T10:02:57.948Z,95
2017-12-14T10:03:57.933Z,95
2017-12-14T10:04:57.934Z,95
2017-12-14T10:05:57.597Z,100
2017-12-14T10:06:57.870Z,100
2017-12-14T10:07:57.943Z,100
2017-12-14T10:08:57.870Z,100
2017-12-14T10:09:57.891Z,100
2017-12-14T10:10:57.830Z,95
2017-12-14T10:11:57.838Z,95
2017-12-14T10:12:57.832Z,95
2017-12-14T10:13:57.494Z,95
2017-12-14T10:14:57.791Z,95
2017-12-14T10:15:57.493Z,95
2017-12-14T10:16:57.767Z,100
2017-12-14T10:17:57.481Z,105
2017-12-14T10:18:57.799Z,110
2017-12-14T10:19:57.774Z,110
2017-12-14T10:20:57.796Z,115
2017-12-14T10:21:57.734Z,115
2017-12-14T10:22:57.773Z,120
2017-12-14T10:23:57.806Z,120
2017-12-14T10:24:57.543Z,120
2017-12-14T10:25:57.753Z,125
2017-12-14T10:26:58.012Z,125
2017-12-14T10:27:57.878Z,130
2017-12-14T10:28:57.239Z,130
2017-12-14T10:29:57.771Z,140
2017-12-14T10:30:58.117Z,145
2017-12-14T10:31:57.619Z,155
2017-12-14T10:32:57.766Z,160
2017-12-14T10:33:57.190Z,165
2017-12-14T10:34:57.626Z,165
2017-12-14T10:35:57.461Z,170
2017-12-14T10:36:57.371Z,170
2017-12-14T10:37:57.687Z,165
2017-12-14T10:38:57.330Z,170
2017-12-14T10:39:57.344Z,170
2017-12-14T10:40:57.289Z,175
2017-12-14T10:41:58.099Z,175
2017-12-14T10:42:58.102Z,175
2017-12-14T10:43:57.407Z,180
2017-12-14T10:44:57.542Z,180
2017-12-14T10:45:57.597Z,190
2017-12-14T10:46:57.536Z,200
2017-12-14T10:47:57.894Z,210
2017-12-14T10:48:57.555Z,210
2017-12-14T10:49:57.622Z,220
2017-12-14T10:50:57.578Z,225
2017-12-14T10:51:57.567Z,230
2017-12-14T10:52:57.543Z,235
2017-12-14T10:53:57.248Z,240
2017-12-14T10:54:57.541Z,240
2017-12-14T10:55:57.508Z,240
2017-12-14T10:56:57.529Z,240
2017-12-14T10:57:57.167Z,230
2017-12-14T10:58:57.242Z,235
2017-12-14T10:59:57.478Z,220
2017-12-14T11:00:57.609Z,195
2017-12-14T11:01:57.837Z,175
2017-12-14T11:02:57.838Z,180
2017-12-14T11:03:57.389Z,200
2017-12-14T11:04:58.243Z,205
2017-12-14T11:05:58.028Z,215
2017-12-14T11:06:57.603Z,200
2017-12-14T11:07:57.430Z,185
2017-12-14T11:08:57.569Z,200
2017-12-14T11:09:57.564Z,200
2017-12-14T11:10:57.569Z,200
2017-12-14T11:11:57.541Z,190
2017-12-14T11:12:57.716Z,195
2017-12-14T11:13:57.489Z,190
2017-12-14T11:14:58.028Z,185
2017-12-14T11:15:57.899Z,175
2017-12-14T11:16:57.937Z,165
2017-12-14T11:17:57.675Z,160
2017-12-14T11:18:58.683Z,155
2017-12-14T11:19:57.181Z,155
2017-12-14T11:20:57.278Z,135
2017-12-14T11:21:57.180Z,125
2017-12-14T11:22:56.946Z,115
2017-12-14T11:23:57.165Z,115
2017-12-14T11:24:57.172Z,115
2017-12-14T11:25:57.619Z,115
2017-12-14T11:26:56.929Z,110
2017-12-14T11:27:57.579Z,115
2017-12-14T11:28:57.360Z,115
2017-12-14T11:29:56.897Z,115
2017-12-14T11:30:57.379Z,120
2017-12-14T11:31:56.853Z,115
2017-12-14T11:32:57.133Z,120
2017-12-14T11:33:57.031Z,120
2017-12-14T11:34:56.787Z,120
2017-12-14T11:35:57.339Z,125
2017-12-14T11:36:56.529Z,120
2017-12-14T11:37:56.794Z,130
2017-12-14T11:38:57.075Z,140
2017-12-14T11:39:56.689Z,150
2017-12-14T11:40:57.031Z,145
2017-12-14T11:41:56.767Z,130
2017-12-14T11:42:58.094Z,125
2017-12-14T11:43:57.019Z,135
2017-12-14T11:44:56.467Z,135
2017-12-14T11:45:56.987Z,140
2017-12-14T11:46:57.013Z,140
2017-12-14T11:47:57.018Z,145
2017-12-14T11:48:56.675Z,145
2017-12-14T11:49:56.940Z,140
2017-12-14T11:50:57.431Z,150
2017-12-14T11:51:56.852Z,145
2017-12-14T11:52:56.292Z,155
2017-12-14T11:53:56.887Z,160
2017-12-14T11:54:56.810Z,155
2017-12-14T11:55:56.567Z,160
2017-12-14T11:56:56.527Z,165
2017-12-14T11:57:56.771Z,165
2017-12-14T11:58:56.700Z,165
2017-12-14T11:59:56.631Z,160
2017-12-14T12:00:56.629Z,150
2017-12-14T12:01:56.620Z,155
2017-12-14T12:02:56.404Z,145
2017-12-14T12:03:56.704Z,150
2017-12-14T12:04:56.413Z,155
2017-12-14T12:05:56.613Z,160
2017-12-14T12:06:56.976Z,170
2017-12-14T12:07:56.621Z,180
2017-12-14T12:08:56.642Z,170
2017-12-14T12:09:56.424Z,170
2017-12-14T12:10:56.693Z,170
2017-12-14T12:11:56.672Z,155
2017-12-14T12:12:56.829Z,145
2017-12-14T12:13:56.610Z,125
2017-12-14T12:14:56.559Z,135
2017-12-14T12:15:56.511Z,120
2017-12-14T12:16:56.521Z,105
2017-12-14T12:17:56.492Z,105
2017-12-14T12:18:56.617Z,115
2017-12-14T12:19:56.446Z,115
2017-12-14T12:20:56.430Z,110
2017-12-14T12:21:56.220Z,135
2017-12-14T12:22:56.440Z,125
2017-12-14T12:23:56.394Z,110
2017-12-14T12:24:56.458Z,110
2017-12-14T12:25:56.419Z,105
2017-12-14T12:26:56.343Z,105
2017-12-14T12:27:56.210Z,100
2017-12-14T12:28:56.404Z,95
2017-12-14T12:29:56.189Z,110
2017-12-14T12:30:56.924Z,115
2017-12-14T12:31:56.381Z,115
2017-12-14T12:32:56.051Z,120
2017-12-14T12:33:56.385Z,120
2017-12-14T12:34:55.763Z,110
2017-12-14T12:35:56.316Z,110
2017-12-14T12:36:56.790Z,120
2017-12-14T12:37:56.360Z,105
2017-12-14T12:38:56.448Z,100
2017-12-14T12:39:56.316Z,125
2017-12-14T12:40:55.858Z,125
2017-12-14T12:41:56.361Z,125
2017-12-14T12:42:56.391Z,110
2017-12-14T12:43:56.304Z,100
2017-12-14T12:44:56.760Z,100
2017-12-14T12:45:56.456Z,110
2017-12-14T12:46:56.220Z,80
2017-12-14T12:47:56.213Z,70
2017-12-14T12:48:56.271Z,65
2017-12-14T12:49:56.152Z,75
2017-12-14T12:50:56.222Z,85
2017-12-14T12:51:56.193Z,90
2017-12-14T12:52:56.151Z,85
2017-12-14T12:53:56.221Z,75
2017-12-14T12:54:56.138Z,60
2017-12-14T12:55:55.913Z,75
2017-12-14T12:56:55.906Z,110
2017-12-14T12:57:56.113Z,100
2017-12-14T12:58:56.184Z,60
2017-12-14T12:59:56.130Z,60
2017-12-14T13:00:56.175Z,60
2017-12-14T13:01:56.048Z,60
2017-12-14T13:02:56.010Z,65
2017-12-14T13:03:56.013Z,50
2017-12-14T13:04:55.744Z,45
2017-12-14T13:05:56.541Z,40
2017-12-14T13:06:55.697Z,50
2017-12-14T13:07:56.640Z,60
2017-12-14T13:08:56.040Z,55
2017-12-14T13:09:56.015Z,50
2017-12-14T13:10:55.966Z,45
2017-12-14T13:11:55.923Z,50
2017-12-14T13:12:56.008Z,50
2017-12-14T13:13:56.072Z,55
2017-12-14T13:14:55.756Z,70
2017-12-14T13:15:55.713Z,50
2017-12-14T13:16:56.201Z,50
2017-12-14T13:17:55.430Z,45
2017-12-14T13:18:56.134Z,35
2017-12-14T13:19:55.675Z,25
2017-12-14T13:20:55.977Z,25
2017-12-14T13:21:55.889Z,25
2017-12-14T13:22:56.027Z,25
2017-12-14T13:23:55.970Z,25
2017-12-14T13:24:55.837Z,20
2017-12-14T13:25:55.861Z,20
2017-12-14T13:26:55.789Z,15
2017-12-14T13:27:55.777Z,20
2017-12-14T13:28:55.823Z,20
2017-12-14T13:29:55.513Z,20
2017-12-14T13:30:56.041Z,25
2017-12-14T13:31:56.287Z,25
2017-12-14T13:32:55.661Z,20
2017-12-14T13:33:55.633Z,30
2017-12-14T13:34:55.492Z,40
2017-12-14T13:35:55.716Z,55
2017-12-14T13:36:55.137Z,85
2017-12-14T13:37:55.704Z,105
2017-12-14T13:38:55.656Z,95
2017-12-14T13:39:55.720Z,90
2017-12-14T13:40:55.566Z,85
2017-12-14T13:41:55.564Z,95
2017-12-14T13:42:55.557Z,105
2017-12-14T13:43:55.543Z,100
2017-12-14T13:44:55.251Z,95
2017-12-14T13:45:55.252Z,90
2017-12-14T13:46:55.304Z,85
2017-12-14T13:47:55.616Z,80
2017-12-14T13:48:55.552Z,80
2017-12-14T13:49:55.511Z,75
2017-12-14T13:50:55.407Z,70
2017-12-14T13:51:55.184Z,65
2017-12-14T13:52:55.242Z,55
2017-12-14T13:53:55.487Z,50
2017-12-14T13:54:55.419Z,55
2017-12-14T13:55:55.702Z,70
2017-12-14T13:56:55.473Z,65
2017-12-14T13:57:55.467Z,60
2017-12-14T13:58:55.175Z,55
2017-12-14T13:59:55.647Z,55
2017-12-14T14:00:55.632Z,55
2017-12-14T14:01:54.817Z,45
2017-12-14T14:02:55.704Z,50
2017-12-14T14:03:55.378Z,55
2017-12-14T14:04:55.371Z,55
2017-12-14T14:05:55.503Z,50
2017-12-14T14:06:55.375Z,45
2017-12-14T14:07:55.415Z,50
2017-12-14T14:08:55.343Z,45
2017-12-14T14:09:55.553Z,45
2017-12-14T14:10:55.318Z,45
2017-12-14T14:11:55.025Z,40
2017-12-14T14:12:55.837Z,40
2017-12-14T14:13:55.318Z,40
2017-12-14T14:14:55.485Z,40
2017-12-14T14:15:55.933Z,40
2017-12-14T14:16:55.751Z,35
2017-12-14T14:17:55.015Z,35
2017-12-14T14:18:55.229Z,35
2017-12-14T14:19:55.401Z,35
2017-12-14T14:20:55.154Z,35
2017-12-14T14:21:55.067Z,30
2017-12-14T14:22:55.005Z,30
2017-12-14T14:23:54.788Z,30
2017-12-14T14:24:54.971Z,30